sensor_id;sensor_type;location;lat;lon;timestamp;temperature;humidity
45319;DHT22;31057;48.498;32.260;2023-03-03T00:00:19;0.80;99.90
45319;DHT22;31057;48.498;32.260;2023-03-03T00:02:21;0.90;99.90
45319;DHT22;31057;48.498;32.260;2023-03-03T00:04:26;0.90;99.90
45319;DHT22;31057;48.498;32.260;2023-03-03T00:06:28;0.80;99.90
45319;DHT22;31057;48.498;32.260;2023-03-03T00:08:31;0.80;99.90
45319;DHT22;31057;48.498;32.260;2023-03-03T00:10:33;0.90;99.90
45319;DHT22;31057;48.498;32.260;2023-03-03T00:12:35;1.00;99.90
45319;DHT22;31057;48.498;32.260;2023-03-03T00:14:44;1.00;99.90
45319;DHT22;31057;48.498;32.260;2023-03-03T00:16:45;1.10;99.90
45319;DHT22;31057;48.498;32.260;2023-03-03T00:18:49;1.20;99.90
45319;DHT22;31057;48.498;32.260;2023-03-03T00:20:52;1.20;99.90
45319;DHT22;31057;48.498;32.260;2023-03-03T00:22:54;1.20;99.90
45319;DHT22;31057;48.498;32.260;2023-03-03T00:25:00;1.30;99.90
45319;DHT22;31057;48.498;32.260;2023-03-03T00:31:32;1.50;99.90
45319;DHT22;31057;48.498;32.260;2023-03-03T00:33:38;1.40;99.90
45319;DHT22;31057;48.498;32.260;2023-03-03T00:35:43;1.50;99.90
45319;DHT22;31057;48.498;32.260;2023-03-03T00:37:45;1.60;99.90
45319;DHT22;31057;48.498;32.260;2023-03-03T00:39:47;1.60;99.90
45319;DHT22;31057;48.498;32.260;2023-03-03T00:41:49;1.60;99.90
45319;DHT22;31057;48.498;32.260;2023-03-03T00:43:51;1.60;99.90
45319;DHT22;31057;48.498;32.260;2023-03-03T00:45:54;1.60;99.90
45319;DHT22;31057;48.498;32.260;2023-03-03T00:47:56;1.60;99.90
45319;DHT22;31057;48.498;32.260;2023-03-03T00:50:44;1.60;99.90
45319;DHT22;31057;48.498;32.260;2023-03-03T00:52:21;1.60;99.90
45319;DHT22;31057;48.498;32.260;2023-03-03T00:54:27;1.50;99.90
45319;DHT22;31057;48.498;32.260;2023-03-03T00:56:29;1.50;99.90
45319;DHT22;31057;48.498;32.260;2023-03-03T00:58:31;1.40;99.90
45319;DHT22;31057;48.498;32.260;2023-03-03T01:00:33;1.20;99.90
45319;DHT22;31057;48.498;32.260;2023-03-03T01:02:35;1.20;99.90
45319;DHT22;31057;48.498;32.260;2023-03-03T01:04:37;1.20;99.90
45319;DHT22;31057;48.498;32.260;2023-03-03T01:06:39;1.20;99.90
45319;DHT22;31057;48.498;32.260;2023-03-03T01:08:41;1.30;99.90
45319;DHT22;31057;48.498;32.260;2023-03-03T01:11:04;1.10;99.90
45319;DHT22;31057;48.498;32.260;2023-03-03T01:13:05;1.10;99.90
45319;DHT22;31057;48.498;32.260;2023-03-03T01:15:08;1.20;99.90
45319;DHT22;31057;48.498;32.260;2023-03-03T01:17:10;1.20;99.90
45319;DHT22;31057;48.498;32.260;2023-03-03T01:19:12;1.00;99.90
45319;DHT22;31057;48.498;32.260;2023-03-03T01:21:14;1.00;99.90
45319;DHT22;31057;48.498;32.260;2023-03-03T01:23:15;1.10;99.90
45319;DHT22;31057;48.498;32.260;2023-03-03T01:25:17;1.20;99.90
45319;DHT22;31057;48.498;32.260;2023-03-03T01:27:19;1.40;99.90
45319;DHT22;31057;48.498;32.260;2023-03-03T01:29:21;1.50;99.90
45319;DHT22;31057;48.498;32.260;2023-03-03T01:31:23;1.40;99.90
45319;DHT22;31057;48.498;32.260;2023-03-03T01:33:24;1.30;99.90
45319;DHT22;31057;48.498;32.260;2023-03-03T01:35:26;1.30;99.90
45319;DHT22;31057;48.498;32.260;2023-03-03T01:37:28;1.40;99.90
45319;DHT22;31057;48.498;32.260;2023-03-03T01:39:30;1.40;99.90
45319;DHT22;31057;48.498;32.260;2023-03-03T01:41:31;1.30;99.90
45319;DHT22;31057;48.498;32.260;2023-03-03T01:43:34;1.20;99.90
45319;DHT22;31057;48.498;32.260;2023-03-03T01:48:02;1.30;99.90
45319;DHT22;31057;48.498;32.260;2023-03-03T01:50:05;1.30;99.90
45319;DHT22;31057;48.498;32.260;2023-03-03T01:52:25;1.50;99.90
45319;DHT22;31057;48.498;32.260;2023-03-03T01:54:40;1.70;99.90
45319;DHT22;31057;48.498;32.260;2023-03-03T01:56:42;1.70;99.90
45319;DHT22;31057;48.498;32.260;2023-03-03T01:58:48;1.60;99.90
45319;DHT22;31057;48.498;32.260;2023-03-03T02:00:52;1.70;99.90
45319;DHT22;31057;48.498;32.260;2023-03-03T02:02:55;1.70;99.90
45319;DHT22;31057;48.498;32.260;2023-03-03T02:04:57;1.70;99.90
45319;DHT22;31057;48.498;32.260;2023-03-03T02:07:04;1.80;99.90
45319;DHT22;31057;48.498;32.260;2023-03-03T02:11:12;1.80;99.90
45319;DHT22;31057;48.498;32.260;2023-03-03T02:13:15;1.80;99.90
45319;DHT22;31057;48.498;32.260;2023-03-03T02:15:26;1.80;99.90
45319;DHT22;31057;48.498;32.260;2023-03-03T02:17:28;1.80;99.90
45319;DHT22;31057;48.498;32.260;2023-03-03T02:21:50;1.70;99.90
45319;DHT22;31057;48.498;32.260;2023-03-03T02:26:21;1.60;99.90
45319;DHT22;31057;48.498;32.260;2023-03-03T02:28:23;1.60;99.90
45319;DHT22;31057;48.498;32.260;2023-03-03T02:30:26;1.70;99.90
45319;DHT22;31057;48.498;32.260;2023-03-03T02:32:27;1.70;99.90
45319;DHT22;31057;48.498;32.260;2023-03-03T02:34:29;1.80;99.90
45319;DHT22;31057;48.498;32.260;2023-03-03T02:36:32;1.80;99.90
45319;DHT22;31057;48.498;32.260;2023-03-03T02:40:39;1.80;99.90
45319;DHT22;31057;48.498;32.260;2023-03-03T02:42:42;1.90;99.90
45319;DHT22;31057;48.498;32.260;2023-03-03T02:44:46;1.80;99.90
45319;DHT22;31057;48.498;32.260;2023-03-03T02:46:48;1.90;99.90
45319;DHT22;31057;48.498;32.260;2023-03-03T02:48:50;1.90;99.90
45319;DHT22;31057;48.498;32.260;2023-03-03T02:50:52;2.00;99.90
45319;DHT22;31057;48.498;32.260;2023-03-03T02:52:54;1.90;99.90
45319;DHT22;31057;48.498;32.260;2023-03-03T02:54:55;2.00;99.90
45319;DHT22;31057;48.498;32.260;2023-03-03T02:56:58;2.00;99.90
45319;DHT22;31057;48.498;32.260;2023-03-03T02:59:00;2.00;99.90
45319;DHT22;31057;48.498;32.260;2023-03-03T03:01:02;2.00;99.90
45319;DHT22;31057;48.498;32.260;2023-03-03T03:03:04;2.00;99.90
45319;DHT22;31057;48.498;32.260;2023-03-03T03:05:06;2.10;99.90
45319;DHT22;31057;48.498;32.260;2023-03-03T03:07:09;2.10;99.90
45319;DHT22;31057;48.498;32.260;2023-03-03T03:09:12;2.20;99.90
45319;DHT22;31057;48.498;32.260;2023-03-03T03:11:15;2.30;99.90
45319;DHT22;31057;48.498;32.260;2023-03-03T03:13:16;2.40;99.90
45319;DHT22;31057;48.498;32.260;2023-03-03T03:15:18;2.30;99.90
45319;DHT22;31057;48.498;32.260;2023-03-03T03:17:20;2.40;99.90
45319;DHT22;31057;48.498;32.260;2023-03-03T03:19:22;2.40;99.90
45319;DHT22;31057;48.498;32.260;2023-03-03T03:21:24;2.40;99.90
45319;DHT22;31057;48.498;32.260;2023-03-03T03:23:26;2.40;99.90
45319;DHT22;31057;48.498;32.260;2023-03-03T03:25:27;2.40;99.90
45319;DHT22;31057;48.498;32.260;2023-03-03T03:27:29;2.50;99.90
45319;DHT22;31057;48.498;32.260;2023-03-03T03:29:31;2.60;99.90
45319;DHT22;31057;48.498;32.260;2023-03-03T03:31:33;2.80;99.90
45319;DHT22;31057;48.498;32.260;2023-03-03T03:33:35;2.70;99.90
45319;DHT22;31057;48.498;32.260;2023-03-03T03:35:37;2.80;99.90
45319;DHT22;31057;48.498;32.260;2023-03-03T03:37:38;2.80;99.90
45319;DHT22;31057;48.498;32.260;2023-03-03T03:39:40;2.80;99.90
45319;DHT22;31057;48.498;32.260;2023-03-03T03:41:42;2.90;99.90
45319;DHT22;31057;48.498;32.260;2023-03-03T03:43:44;3.00;99.90
45319;DHT22;31057;48.498;32.260;2023-03-03T03:45:46;3.00;99.90
45319;DHT22;31057;48.498;32.260;2023-03-03T03:47:47;3.00;99.90
45319;DHT22;31057;48.498;32.260;2023-03-03T03:49:49;3.00;99.90
45319;DHT22;31057;48.498;32.260;2023-03-03T03:51:51;3.00;99.90
45319;DHT22;31057;48.498;32.260;2023-03-03T03:53:53;3.00;99.90
45319;DHT22;31057;48.498;32.260;2023-03-03T03:55:55;3.10;99.90
45319;DHT22;31057;48.498;32.260;2023-03-03T03:57:56;3.10;99.90
45319;DHT22;31057;48.498;32.260;2023-03-03T03:59:58;3.10;99.90
45319;DHT22;31057;48.498;32.260;2023-03-03T04:02:00;3.20;99.90
45319;DHT22;31057;48.498;32.260;2023-03-03T04:04:02;3.10;99.90
45319;DHT22;31057;48.498;32.260;2023-03-03T04:06:05;3.00;99.90
45319;DHT22;31057;48.498;32.260;2023-03-03T04:08:07;3.00;99.90
45319;DHT22;31057;48.498;32.260;2023-03-03T04:10:09;3.10;99.90
45319;DHT22;31057;48.498;32.260;2023-03-03T04:12:11;3.10;99.90
45319;DHT22;31057;48.498;32.260;2023-03-03T04:14:13;3.10;99.90
45319;DHT22;31057;48.498;32.260;2023-03-03T04:16:15;3.10;99.90
45319;DHT22;31057;48.498;32.260;2023-03-03T04:18:16;3.00;99.90
45319;DHT22;31057;48.498;32.260;2023-03-03T04:20:18;2.90;99.90
45319;DHT22;31057;48.498;32.260;2023-03-03T04:22:20;2.90;99.90
45319;DHT22;31057;48.498;32.260;2023-03-03T04:24:22;2.90;99.90
45319;DHT22;31057;48.498;32.260;2023-03-03T04:26:24;2.80;99.90
45319;DHT22;31057;48.498;32.260;2023-03-03T04:28:27;2.80;99.90
45319;DHT22;31057;48.498;32.260;2023-03-03T04:30:29;2.80;99.90
45319;DHT22;31057;48.498;32.260;2023-03-03T04:32:30;3.00;99.90
45319;DHT22;31057;48.498;32.260;2023-03-03T04:34:34;2.90;99.90
45319;DHT22;31057;48.498;32.260;2023-03-03T04:36:36;3.00;99.90
45319;DHT22;31057;48.498;32.260;2023-03-03T04:38:37;2.70;99.90
45319;DHT22;31057;48.498;32.260;2023-03-03T04:40:40;2.60;99.90
45319;DHT22;31057;48.498;32.260;2023-03-03T04:42:42;2.80;99.90
45319;DHT22;31057;48.498;32.260;2023-03-03T04:44:44;2.80;99.90
45319;DHT22;31057;48.498;32.260;2023-03-03T04:46:45;2.80;99.90
45319;DHT22;31057;48.498;32.260;2023-03-03T04:48:47;2.80;99.90
45319;DHT22;31057;48.498;32.260;2023-03-03T04:50:49;2.80;99.90
45319;DHT22;31057;48.498;32.260;2023-03-03T04:52:50;2.80;99.90
45319;DHT22;31057;48.498;32.260;2023-03-03T04:54:52;2.80;99.90
45319;DHT22;31057;48.498;32.260;2023-03-03T04:56:54;2.80;99.90
45319;DHT22;31057;48.498;32.260;2023-03-03T04:58:56;2.90;99.90
45319;DHT22;31057;48.498;32.260;2023-03-03T05:00:58;2.90;99.90
45319;DHT22;31057;48.498;32.260;2023-03-03T05:02:59;2.90;99.90
45319;DHT22;31057;48.498;32.260;2023-03-03T05:05:02;3.00;99.90
45319;DHT22;31057;48.498;32.260;2023-03-03T05:07:03;2.90;99.90
45319;DHT22;31057;48.498;32.260;2023-03-03T05:09:05;2.80;99.90
45319;DHT22;31057;48.498;32.260;2023-03-03T05:11:07;2.90;99.90
45319;DHT22;31057;48.498;32.260;2023-03-03T05:13:09;2.90;99.90
45319;DHT22;31057;48.498;32.260;2023-03-03T05:15:11;3.00;99.90
45319;DHT22;31057;48.498;32.260;2023-03-03T05:17:13;2.90;99.90
45319;DHT22;31057;48.498;32.260;2023-03-03T05:19:14;2.70;99.90
45319;DHT22;31057;48.498;32.260;2023-03-03T05:21:16;2.70;99.90
45319;DHT22;31057;48.498;32.260;2023-03-03T05:23:18;2.90;99.90
45319;DHT22;31057;48.498;32.260;2023-03-03T05:25:20;2.90;99.90
45319;DHT22;31057;48.498;32.260;2023-03-03T05:27:22;2.90;99.90
45319;DHT22;31057;48.498;32.260;2023-03-03T05:29:24;3.00;99.90
45319;DHT22;31057;48.498;32.260;2023-03-03T05:31:25;3.10;99.90
45319;DHT22;31057;48.498;32.260;2023-03-03T05:33:27;3.00;99.90
45319;DHT22;31057;48.498;32.260;2023-03-03T05:35:29;3.00;99.90
45319;DHT22;31057;48.498;32.260;2023-03-03T05:37:31;2.90;99.90
45319;DHT22;31057;48.498;32.260;2023-03-03T05:39:33;3.00;99.90
45319;DHT22;31057;48.498;32.260;2023-03-03T05:41:35;3.00;99.90
45319;DHT22;31057;48.498;32.260;2023-03-03T05:43:37;2.90;99.90
45319;DHT22;31057;48.498;32.260;2023-03-03T05:45:39;2.90;99.90
45319;DHT22;31057;48.498;32.260;2023-03-03T05:47:40;3.00;99.90
45319;DHT22;31057;48.498;32.260;2023-03-03T05:49:42;2.80;99.90
45319;DHT22;31057;48.498;32.260;2023-03-03T05:51:44;2.60;99.90
45319;DHT22;31057;48.498;32.260;2023-03-03T05:53:46;2.60;99.90
45319;DHT22;31057;48.498;32.260;2023-03-03T05:55:48;2.80;99.90
45319;DHT22;31057;48.498;32.260;2023-03-03T05:57:50;2.90;99.90
45319;DHT22;31057;48.498;32.260;2023-03-03T05:59:51;2.90;99.90
45319;DHT22;31057;48.498;32.260;2023-03-03T06:01:53;2.90;99.90
45319;DHT22;31057;48.498;32.260;2023-03-03T06:03:55;3.00;99.90
45319;DHT22;31057;48.498;32.260;2023-03-03T06:05:56;3.00;99.90
45319;DHT22;31057;48.498;32.260;2023-03-03T06:07:58;3.00;99.90
45319;DHT22;31057;48.498;32.260;2023-03-03T06:10:00;3.00;99.90
45319;DHT22;31057;48.498;32.260;2023-03-03T06:12:02;3.00;99.90
45319;DHT22;31057;48.498;32.260;2023-03-03T06:14:04;3.00;99.90
45319;DHT22;31057;48.498;32.260;2023-03-03T06:16:06;2.90;99.90
45319;DHT22;31057;48.498;32.260;2023-03-03T06:18:08;2.90;99.90
45319;DHT22;31057;48.498;32.260;2023-03-03T06:20:10;2.90;99.90
45319;DHT22;31057;48.498;32.260;2023-03-03T06:22:12;3.00;99.90
45319;DHT22;31057;48.498;32.260;2023-03-03T06:24:14;3.10;99.90
45319;DHT22;31057;48.498;32.260;2023-03-03T06:26:16;3.00;99.90
45319;DHT22;31057;48.498;32.260;2023-03-03T06:28:18;3.10;99.90
45319;DHT22;31057;48.498;32.260;2023-03-03T06:30:20;3.00;99.90
45319;DHT22;31057;48.498;32.260;2023-03-03T06:32:22;3.00;99.90
45319;DHT22;31057;48.498;32.260;2023-03-03T06:34:23;3.00;99.90
45319;DHT22;31057;48.498;32.260;2023-03-03T06:36:25;3.00;99.90
45319;DHT22;31057;48.498;32.260;2023-03-03T06:38:27;3.00;99.90
45319;DHT22;31057;48.498;32.260;2023-03-03T06:40:29;3.00;99.90
45319;DHT22;31057;48.498;32.260;2023-03-03T06:42:31;3.00;99.90
45319;DHT22;31057;48.498;32.260;2023-03-03T06:44:32;3.00;99.90
45319;DHT22;31057;48.498;32.260;2023-03-03T06:46:34;3.00;99.90
45319;DHT22;31057;48.498;32.260;2023-03-03T06:48:36;3.10;99.90
45319;DHT22;31057;48.498;32.260;2023-03-03T06:50:38;3.10;99.90
45319;DHT22;31057;48.498;32.260;2023-03-03T06:52:40;3.10;99.90
45319;DHT22;31057;48.498;32.260;2023-03-03T06:54:41;3.20;99.90
45319;DHT22;31057;48.498;32.260;2023-03-03T06:56:43;3.20;99.90
45319;DHT22;31057;48.498;32.260;2023-03-03T06:58:46;3.30;99.90
45319;DHT22;31057;48.498;32.260;2023-03-03T07:00:49;3.30;99.90
45319;DHT22;31057;48.498;32.260;2023-03-03T07:03:15;3.40;99.90
45319;DHT22;31057;48.498;32.260;2023-03-03T07:05:16;3.50;99.90
45319;DHT22;31057;48.498;32.260;2023-03-03T07:07:22;3.30;99.90
45319;DHT22;31057;48.498;32.260;2023-03-03T07:09:26;3.40;99.90
45319;DHT22;31057;48.498;32.260;2023-03-03T07:11:29;3.40;99.90
45319;DHT22;31057;48.498;32.260;2023-03-03T07:13:31;3.40;99.90
45319;DHT22;31057;48.498;32.260;2023-03-03T07:15:33;3.30;99.90
45319;DHT22;31057;48.498;32.260;2023-03-03T07:17:35;3.30;99.90
45319;DHT22;31057;48.498;32.260;2023-03-03T07:19:39;3.30;99.90
45319;DHT22;31057;48.498;32.260;2023-03-03T07:21:41;3.30;99.90
45319;DHT22;31057;48.498;32.260;2023-03-03T07:23:44;3.40;99.90
45319;DHT22;31057;48.498;32.260;2023-03-03T07:25:46;3.40;99.90
45319;DHT22;31057;48.498;32.260;2023-03-03T07:27:49;3.40;99.90
45319;DHT22;31057;48.498;32.260;2023-03-03T07:29:52;3.50;99.90
45319;DHT22;31057;48.498;32.260;2023-03-03T07:31:54;3.50;99.90
45319;DHT22;31057;48.498;32.260;2023-03-03T07:33:57;3.50;99.90
45319;DHT22;31057;48.498;32.260;2023-03-03T07:35:59;3.50;99.90
45319;DHT22;31057;48.498;32.260;2023-03-03T07:38:02;3.50;99.90
45319;DHT22;31057;48.498;32.260;2023-03-03T07:42:25;3.60;99.90
45319;DHT22;31057;48.498;32.260;2023-03-03T07:44:31;3.60;99.90
45319;DHT22;31057;48.498;32.260;2023-03-03T07:46:43;3.70;99.90
45319;DHT22;31057;48.498;32.260;2023-03-03T07:48:45;3.50;99.90
45319;DHT22;31057;48.498;32.260;2023-03-03T07:50:47;3.50;99.90
45319;DHT22;31057;48.498;32.260;2023-03-03T07:52:53;3.50;99.90
45319;DHT22;31057;48.498;32.260;2023-03-03T07:55:00;3.60;99.90
45319;DHT22;31057;48.498;32.260;2023-03-03T07:59:21;3.40;99.90
45319;DHT22;31057;48.498;32.260;2023-03-03T08:01:44;3.40;99.90
45319;DHT22;31057;48.498;32.260;2023-03-03T08:03:46;3.80;99.90
45319;DHT22;31057;48.498;32.260;2023-03-03T08:05:50;4.10;99.90
45319;DHT22;31057;48.498;32.260;2023-03-03T08:07:51;4.10;99.90
45319;DHT22;31057;48.498;32.260;2023-03-03T08:12:00;3.80;99.90
45319;DHT22;31057;48.498;32.260;2023-03-03T08:14:08;3.80;99.90
45319;DHT22;31057;48.498;32.260;2023-03-03T08:18:21;4.00;99.90
45319;DHT22;31057;48.498;32.260;2023-03-03T08:20:38;4.00;99.90
45319;DHT22;31057;48.498;32.260;2023-03-03T08:22:41;4.10;99.90
45319;DHT22;31057;48.498;32.260;2023-03-03T08:24:44;3.90;99.90
45319;DHT22;31057;48.498;32.260;2023-03-03T08:26:45;4.10;99.90
45319;DHT22;31057;48.498;32.260;2023-03-03T08:28:47;4.30;99.90
45319;DHT22;31057;48.498;32.260;2023-03-03T08:30:50;4.20;99.90
45319;DHT22;31057;48.498;32.260;2023-03-03T08:33:00;4.30;99.90
45319;DHT22;31057;48.498;32.260;2023-03-03T08:35:02;4.30;99.90
45319;DHT22;31057;48.498;32.260;2023-03-03T08:37:04;4.30;99.90
45319;DHT22;31057;48.498;32.260;2023-03-03T08:39:06;4.20;99.90
45319;DHT22;31057;48.498;32.260;2023-03-03T08:41:08;4.30;99.90
45319;DHT22;31057;48.498;32.260;2023-03-03T08:43:10;4.50;99.90
45319;DHT22;31057;48.498;32.260;2023-03-03T08:45:17;4.40;99.90
45319;DHT22;31057;48.498;32.260;2023-03-03T08:47:19;4.40;99.90
45319;DHT22;31057;48.498;32.260;2023-03-03T08:49:20;4.20;99.90
45319;DHT22;31057;48.498;32.260;2023-03-03T08:51:22;4.20;99.90
45319;DHT22;31057;48.498;32.260;2023-03-03T08:53:25;4.20;99.90
45319;DHT22;31057;48.498;32.260;2023-03-03T08:55:27;4.20;99.90
45319;DHT22;31057;48.498;32.260;2023-03-03T08:57:29;4.30;99.90
45319;DHT22;31057;48.498;32.260;2023-03-03T08:59:30;4.30;99.90
45319;DHT22;31057;48.498;32.260;2023-03-03T09:01:38;4.40;99.90
45319;DHT22;31057;48.498;32.260;2023-03-03T09:03:40;4.50;99.90
45319;DHT22;31057;48.498;32.260;2023-03-03T09:05:55;4.50;99.90
45319;DHT22;31057;48.498;32.260;2023-03-03T09:07:58;4.40;99.90
45319;DHT22;31057;48.498;32.260;2023-03-03T09:10:01;4.50;99.90
45319;DHT22;31057;48.498;32.260;2023-03-03T09:12:20;4.40;99.90
45319;DHT22;31057;48.498;32.260;2023-03-03T09:14:23;4.30;99.90
45319;DHT22;31057;48.498;32.260;2023-03-03T09:16:29;4.30;99.90
45319;DHT22;31057;48.498;32.260;2023-03-03T09:18:36;4.30;99.90
45319;DHT22;31057;48.498;32.260;2023-03-03T09:20:39;4.20;99.90
45319;DHT22;31057;48.498;32.260;2023-03-03T09:22:41;4.30;99.90
45319;DHT22;31057;48.498;32.260;2023-03-03T09:24:45;4.30;99.90
45319;DHT22;31057;48.498;32.260;2023-03-03T09:26:47;4.20;99.90
45319;DHT22;31057;48.498;32.260;2023-03-03T09:28:49;4.20;99.90
45319;DHT22;31057;48.498;32.260;2023-03-03T09:30:52;4.20;99.90
45319;DHT22;31057;48.498;32.260;2023-03-03T09:32:55;4.20;99.90
45319;DHT22;31057;48.498;32.260;2023-03-03T09:34:57;4.30;99.90
45319;DHT22;31057;48.498;32.260;2023-03-03T09:36:59;4.30;99.90
45319;DHT22;31057;48.498;32.260;2023-03-03T09:39:10;4.40;99.90
45319;DHT22;31057;48.498;32.260;2023-03-03T09:47:55;4.60;99.90
45319;DHT22;31057;48.498;32.260;2023-03-03T09:56:44;4.20;99.90
45319;DHT22;31057;48.498;32.260;2023-03-03T10:13:52;4.10;99.90
45319;DHT22;31057;48.498;32.260;2023-03-03T10:18:05;4.20;99.90
45319;DHT22;31057;48.498;32.260;2023-03-03T10:24:56;4.00;99.90
45319;DHT22;31057;48.498;32.260;2023-03-03T10:29:20;4.30;99.90
45319;DHT22;31057;48.498;32.260;2023-03-03T10:35:55;4.40;99.90
45319;DHT22;31057;48.498;32.260;2023-03-03T10:40:16;4.50;99.90
45319;DHT22;31057;48.498;32.260;2023-03-03T10:44:34;4.60;99.90
45319;DHT22;31057;48.498;32.260;2023-03-03T10:51:02;4.50;99.90
45319;DHT22;31057;48.498;32.260;2023-03-03T10:53:42;4.30;99.90
45319;DHT22;31057;48.498;32.260;2023-03-03T11:02:26;4.60;99.90
45319;DHT22;31057;48.498;32.260;2023-03-03T11:07:09;4.90;99.90
45319;DHT22;31057;48.498;32.260;2023-03-03T11:13:51;4.50;99.90
45319;DHT22;31057;48.498;32.260;2023-03-03T11:17:57;4.60;99.90
45319;DHT22;31057;48.498;32.260;2023-03-03T11:20:28;4.40;99.90
45319;DHT22;31057;48.498;32.260;2023-03-03T11:24:37;4.60;99.90
45319;DHT22;31057;48.498;32.260;2023-03-03T11:29:29;4.80;99.90
45319;DHT22;31057;48.498;32.260;2023-03-03T11:31:15;4.70;99.90
45319;DHT22;31057;48.498;32.260;2023-03-03T11:38:09;4.70;99.90
45319;DHT22;31057;48.498;32.260;2023-03-03T11:40:23;4.80;99.90
45319;DHT22;31057;48.498;32.260;2023-03-03T11:46:38;4.90;99.90
45319;DHT22;31057;48.498;32.260;2023-03-03T11:49:03;5.00;99.90
45319;DHT22;31057;48.498;32.260;2023-03-03T11:55:14;4.90;99.90
45319;DHT22;31057;48.498;32.260;2023-03-03T11:57:28;4.70;99.90
45319;DHT22;31057;48.498;32.260;2023-03-03T11:59:38;4.70;99.90
45319;DHT22;31057;48.498;32.260;2023-03-03T12:08:21;4.70;99.90
45319;DHT22;31057;48.498;32.260;2023-03-03T12:10:29;4.90;99.90
45319;DHT22;31057;48.498;32.260;2023-03-03T12:12:38;5.00;99.90
45319;DHT22;31057;48.498;32.260;2023-03-03T12:18:56;4.70;99.90
45319;DHT22;31057;48.498;32.260;2023-03-03T12:36:15;5.10;99.90
45319;DHT22;31057;48.498;32.260;2023-03-03T12:40:39;5.00;99.90
45319;DHT22;31057;48.498;32.260;2023-03-03T12:47:13;4.90;99.90
45319;DHT22;31057;48.498;32.260;2023-03-03T12:49:15;4.90;99.90
45319;DHT22;31057;48.498;32.260;2023-03-03T12:55:40;4.90;99.90
45319;DHT22;31057;48.498;32.260;2023-03-03T12:57:53;4.80;99.90
45319;DHT22;31057;48.498;32.260;2023-03-03T13:04:28;4.90;99.90
45319;DHT22;31057;48.498;32.260;2023-03-03T13:06:38;5.00;99.90
45319;DHT22;31057;48.498;32.260;2023-03-03T13:08:55;5.00;99.90
45319;DHT22;31057;48.498;32.260;2023-03-03T13:11:00;4.80;99.90
45319;DHT22;31057;48.498;32.260;2023-03-03T13:15:43;4.80;99.90
45319;DHT22;31057;48.498;32.260;2023-03-03T13:20:43;4.90;99.90
45319;DHT22;31057;48.498;32.260;2023-03-03T13:26:55;4.80;99.90
45319;DHT22;31057;48.498;32.260;2023-03-03T13:31:32;4.80;99.90
45319;DHT22;31057;48.498;32.260;2023-03-03T13:33:35;4.70;99.90
45319;DHT22;31057;48.498;32.260;2023-03-03T13:35:41;4.70;99.90
45319;DHT22;31057;48.498;32.260;2023-03-03T13:37:45;4.80;99.90
45319;DHT22;31057;48.498;32.260;2023-03-03T13:40:14;4.80;99.90
45319;DHT22;31057;48.498;32.260;2023-03-03T13:44:24;4.70;99.90
45319;DHT22;31057;48.498;32.260;2023-03-03T13:47:31;4.80;99.90
45319;DHT22;31057;48.498;32.260;2023-03-03T13:51:03;4.70;99.90
45319;DHT22;31057;48.498;32.260;2023-03-03T13:55:21;4.70;99.90
45319;DHT22;31057;48.498;32.260;2023-03-03T13:59:42;4.70;99.90
45319;DHT22;31057;48.498;32.260;2023-03-03T14:04:05;4.70;99.90
45319;DHT22;31057;48.498;32.260;2023-03-03T14:06:16;4.60;99.90
45319;DHT22;31057;48.498;32.260;2023-03-03T14:10:43;4.60;99.90
45319;DHT22;31057;48.498;32.260;2023-03-03T14:12:50;4.70;99.90
45319;DHT22;31057;48.498;32.260;2023-03-03T14:15:02;4.70;99.90
45319;DHT22;31057;48.498;32.260;2023-03-03T14:17:14;4.70;99.90
45319;DHT22;31057;48.498;32.260;2023-03-03T14:19:20;4.60;99.90
45319;DHT22;31057;48.498;32.260;2023-03-03T14:25:52;4.60;99.90
45319;DHT22;31057;48.498;32.260;2023-03-03T14:29:56;4.70;99.90
45319;DHT22;31057;48.498;32.260;2023-03-03T14:32:01;4.70;99.90
45319;DHT22;31057;48.498;32.260;2023-03-03T14:34:25;4.70;99.90
45319;DHT22;31057;48.498;32.260;2023-03-03T14:36:39;4.60;99.90
45319;DHT22;31057;48.498;32.260;2023-03-03T14:38:42;4.50;99.90
45319;DHT22;31057;48.498;32.260;2023-03-03T14:40:45;4.50;99.90
45319;DHT22;31057;48.498;32.260;2023-03-03T14:42:52;4.50;99.90
45319;DHT22;31057;48.498;32.260;2023-03-03T14:44:55;4.50;99.90
45319;DHT22;31057;48.498;32.260;2023-03-03T14:49:02;4.50;99.90
45319;DHT22;31057;48.498;32.260;2023-03-03T14:51:16;4.50;99.90
45319;DHT22;31057;48.498;32.260;2023-03-03T14:53:33;4.60;99.90
45319;DHT22;31057;48.498;32.260;2023-03-03T14:55:36;4.50;99.90
45319;DHT22;31057;48.498;32.260;2023-03-03T14:57:40;4.50;99.90
45319;DHT22;31057;48.498;32.260;2023-03-03T14:59:56;4.50;99.90
45319;DHT22;31057;48.498;32.260;2023-03-03T15:06:27;4.40;99.90
45319;DHT22;31057;48.498;32.260;2023-03-03T15:08:32;4.40;99.90
45319;DHT22;31057;48.498;32.260;2023-03-03T15:10:35;4.40;99.90
45319;DHT22;31057;48.498;32.260;2023-03-03T15:12:37;4.30;99.90
45319;DHT22;31057;48.498;32.260;2023-03-03T15:14:44;4.30;99.90
45319;DHT22;31057;48.498;32.260;2023-03-03T15:16:46;4.30;99.90
45319;DHT22;31057;48.498;32.260;2023-03-03T15:21:06;4.30;99.90
45319;DHT22;31057;48.498;32.260;2023-03-03T15:25:35;4.30;99.90
45319;DHT22;31057;48.498;32.260;2023-03-03T15:27:47;4.30;99.90
45319;DHT22;31057;48.498;32.260;2023-03-03T15:32:26;4.30;99.90
45319;DHT22;31057;48.498;32.260;2023-03-03T15:36:35;4.30;99.90
45319;DHT22;31057;48.498;32.260;2023-03-03T15:41:07;4.20;99.90
45319;DHT22;31057;48.498;32.260;2023-03-03T15:45:20;4.20;99.90
45319;DHT22;31057;48.498;32.260;2023-03-03T15:58:22;4.10;99.90
45319;DHT22;31057;48.498;32.260;2023-03-03T16:02:38;4.10;99.90
45319;DHT22;31057;48.498;32.260;2023-03-03T16:13:51;4.10;99.90
45319;DHT22;31057;48.498;32.260;2023-03-03T16:18:44;4.10;99.90
45319;DHT22;31057;48.498;32.260;2023-03-03T16:29:40;4.10;99.90
45319;DHT22;31057;48.498;32.260;2023-03-03T16:33:49;4.10;99.90
45319;DHT22;31057;48.498;32.260;2023-03-03T16:36:07;4.10;99.90
45319;DHT22;31057;48.498;32.260;2023-03-03T16:42:41;4.10;99.90
45319;DHT22;31057;48.498;32.260;2023-03-03T16:47:01;4.10;99.90
45319;DHT22;31057;48.498;32.260;2023-03-03T16:49:07;4.00;99.90
45319;DHT22;31057;48.498;32.260;2023-03-03T16:55:47;3.90;99.90
45319;DHT22;31057;48.498;32.260;2023-03-03T17:00:10;3.80;99.90
45319;DHT22;31057;48.498;32.260;2023-03-03T17:11:28;3.60;99.90
45319;DHT22;31057;48.498;32.260;2023-03-03T17:16:01;3.80;99.90
45319;DHT22;31057;48.498;32.260;2023-03-03T17:18:19;3.70;99.90
45319;DHT22;31057;48.498;32.260;2023-03-03T17:24:59;3.60;99.90
45319;DHT22;31057;48.498;32.260;2023-03-03T17:26:59;3.60;99.90
45319;DHT22;31057;48.498;32.260;2023-03-03T17:31:28;3.60;99.90
45319;DHT22;31057;48.498;32.260;2023-03-03T17:33:35;3.50;99.90
45319;DHT22;31057;48.498;32.260;2023-03-03T17:35:46;3.60;99.90